HE17 weather

Bir Abu Rahal Airport
Red Sea Governorate, Egypt

Public forecast

Using degrees Celsius for public forecast. Weather courtesy of forecast.io.

METAR (pilot weather report)

Closest report is Luxor International Airport, 59.2 nm (109.7 km) NW. Retrieved 2019/04/18 21:00 UTC (1 hour ago):

HELX 182100Z 35002KT CAVOK 21/08 Q1016 NOSIG

TAF (pilot weather forecast)

Closest forecast is Luxor International Airport, 59.2 nm (109.7 km) NW. Retrieved 2019/04/18 18:40 UTC (3 hours ago):

TAF HELX 181700Z 1818/1924 33010KT CAVOK